Monday, July 28, 2014, 10:32 PM EDT
Back to Local

KPTW, Pottstown Limerick Airport

Location: Royersford, PA, United States Lat: 40.233
Local Time: 10:32 PM EDT ( 2:32 GMT) Lon: -75.55
Time Zone: US/Eastern Elev: 291 ft

Show me the last for .
Show Decoded

2014-07-28 21:54 METAR KPTW 290154Z AUTO 29004KT 10SM CLR 19/16 A2977 RMK AO2 SLP077 T01940161 =
2014-07-28 20:54 METAR KPTW 290054Z AUTO VRB06KT 10SM BKN075 BKN120 20/16 A2974 RMK AO2 SLP066
                 T02000161 =
2014-07-28 18:54 METAR KPTW 282254Z AUTO 30007KT 10SM FEW050 BKN075 OVC120 21/15 A2969 RMK AO2
                 WSHFT 2218 RAB36E48 SLP049 P0000 T02110150 =
2014-07-28 18:38 METAR KPTW 282238Z AUTO 33009KT 10SM -RA SCT046 BKN055 OVC070 21/15 A2969 RMK
                 AO2 WSHFT 2218 RAB36 P0000 T02110150 =
2014-07-28 17:54 METAR KPTW 282154Z AUTO 24011G18KT 10SM FEW050 SCT095 26/14 A2964 RMK AO2 SLP033
                 T02560144 =
2014-07-28 16:54 METAR KPTW 282054Z AUTO 26009G17KT 230V310 10SM FEW055 26/14 A2963 RMK AO2
                 SLP028 T02610144 53007 =
2014-07-28 15:54 METAR KPTW 281954Z AUTO 28008G17KT 220V310 10SM SCT050 BKN065 27/15 A2961 RMK
                 AO2 SLP023 T02670150 =
2014-07-28 14:54 METAR KPTW 281854Z AUTO 27008G19KT 10SM FEW047 SCT100 27/14 A2961 RMK AO2 SLP022
                 T02670144 =
2014-07-28 13:54 METAR KPTW 281754Z AUTO 26008G19KT 10SM SCT046 SCT060 BKN075 25/16 A2961 RMK AO2
                 SLP021 T02500156 10261 20206 58001 =
2014-07-28 12:54 METAR KPTW 281654Z AUTO 28012G22KT 250V330 10SM SCT039 BKN050 26/16 A2961 RMK
                 AO2 SLP022 T02560161 =
2014-07-28 11:54 METAR KPTW 281554Z AUTO 28009G18KT 250V320 10SM FEW033 SCT120 25/17 A2962 RMK
                 AO2 SLP024 T02500167 =
2014-07-28 10:54 METAR KPTW 281454Z AUTO 30010KT 10SM FEW019 SCT027 BKN037 24/18 A2961 RMK AO2
                 SLP022 T02440183 51001 =
2014-07-28 10:49 METAR KPTW 281449Z AUTO 29007KT 10SM FEW019 SCT025 SCT045 24/18 A2961 RMK AO2 =
2014-07-28 09:54 METAR KPTW 281354Z AUTO VRB06KT 10SM BKN015 BKN021 23/19 A2961 RMK AO2 SLP021
                 T02330194 =
2014-07-28 09:44 METAR KPTW 281344Z AUTO 27007KT 250V310 10SM BKN014 BKN021 23/19 A2961 RMK AO2
                 T02280194 =
2014-07-28 09:30 METAR KPTW 281330Z AUTO 27004KT 10SM BKN015 OVC022 22/19 A2961 RMK AO2 T02220194
                 =
2014-07-28 08:54 METAR KPTW 281254Z AUTO VRB05KT 10SM OVC013 22/19 A2961 RMK AO2 SLP021 T02170194
                 =
2014-07-28 08:45 METAR KPTW 281245Z AUTO 24005KT 10SM BKN012 BKN016 21/19 A2961 RMK AO2 T02110194
                 =
2014-07-28 08:31 METAR KPTW 281231Z AUTO 25005KT 10SM FEW007 FEW016 21/19 A2960 RMK AO2 T02110194
                 =
2014-07-28 08:12 METAR KPTW 281212Z AUTO 23004KT 10SM FEW011 SCT020 BKN035 21/19 A2960 RMK AO2
                 T02060189 =
2014-07-28 08:04 METAR KPTW 281204Z AUTO VRB04KT 10SM SCT011 BKN021 OVC035 21/19 A2961 RMK AO2
                 T02060194 =
2014-07-28 07:54 METAR KPTW 281154Z AUTO VRB04KT 10SM BKN011 BKN023 OVC034 21/19 A2961 RMK AO2
                 SLP020 60006 70151 T02060189 10206 20189 52014 =
2014-07-28 07:18 METAR KPTW 281118Z AUTO 00000KT 10SM OVC013 20/19 A2960 RMK AO2 T02000189 =
2014-07-28 06:54 METAR KPTW 281054Z AUTO 00000KT 10SM BKN015 19/18 A2959 RMK AO2 SLP015 T01940183
                 =
2014-07-28 06:24 METAR KPTW 281024Z AUTO 24003KT 10SM BKN017 BKN022 BKN031 19/18 A2957 RMK AO2
                 T01940183 =
2014-07-28 05:54 METAR KPTW 280954Z AUTO 26003KT 10SM FEW016 FEW022 SCT032 19/18 A2958 RMK AO2
                 RAB07E16 SLP011 P0000 T01890183 =
2014-07-28 04:54 METAR KPTW 280854Z AUTO 22003KT 10SM CLR 19/19 A2956 RMK AO2 SLP006 60006
                 T01940189 56019 =
2014-07-28 03:54 METAR KPTW 280754Z AUTO 22003KT 10SM CLR 20/19 A2958 RMK AO2 SLP011 T02000189 =
2014-07-28 02:54 METAR KPTW 280654Z AUTO VRB04KT 10SM FEW003 BKN100 20/19 A2959 RMK AO2 LTG DSNT
                 E RAE54 SLP013 P0006 T02000194 =
2014-07-28 02:05 METAR KPTW 280605Z AUTO VRB03KT 5SM RA BR SCT007 BKN080 OVC110 20/19 A2960 RMK
                 AO2 LTG DSNT E AND SE PRESFR P0004 T02000194 =
2014-07-28 01:54 METAR KPTW 280554Z AUTO 19005KT 5SM RA BR FEW003 BKN015 OVC100 19/19 A2962 RMK
                 AO2 LTG DSNT E AND SE RAB13 SLP025 P0009 60145 T01940194 10272 20189 56037 =
2014-07-28 01:47 METAR KPTW 280547Z AUTO 18003KT 5SM VCTS RA BR SCT003 BKN012 OVC110 19/19 A2963
                 RMK AO2 LTG DSNT SE AND S RAB13 P0007 T01940189 =
2014-07-28 01:38 METAR KPTW 280538Z AUTO 23003KT 7SM VCTS RA BKN012 BKN031 OVC110 19/19 A2963 RMK
                 AO2 LTG DSNT SE-SW RAB13 CIG 004V017 P0005 T01940189 =
2014-07-28 00:54 METAR KPTW 280454Z AUTO 00000KT 10SM FEW005 SCT011 SCT015 19/19 A2964 RMK AO2
                 LTG DSNT SE-SW SLP032 T01940189 403170189 =
2014-07-28 00:40 METAR KPTW 280440Z AUTO 00000KT 10SM SCT005 BKN095 19/19 A2964 RMK AO2 LTG DSNT
                 E-S T01940189 =
2014-07-28 00:14 METAR KPTW 280414Z AUTO 00000KT 10SM BKN005 19/18 A2966 RMK AO2 LTG DSNT E-S
                 T01940183 =
2014-07-27 23:54 METAR KPTW 280354Z AUTO 31004KT 10SM SCT004 BKN100 19/19 A2968 RMK AO2 LTG DSNT
                 NE-S RAE33 TSE18 SLP044 P0007 T01940189 =
2014-07-27 23:50 METAR KPTW 280350Z AUTO 30003KT 10SM FEW004 BKN100 19/18 A2968 RMK AO2 LTG DSNT
                 ALQDS RAE33 TSE18 P0007 =
2014-07-27 23:24 METAR KPTW 280324Z AUTO 00000KT 10SM VCTS -RA FEW034 SCT100 BKN120 19/19 A2967
                 RMK AO2 LTG DSNT ALQDS TSE18 P0007 T01890189 =
2014-07-27 23:10 METAR KPTW 280310Z AUTO 04007KT 5SM -TSRA BR SCT029 BKN070 BKN090 19/18 A2968
                 RMK AO2 LTG DSNT ALQDS PRESFR P0007 T01890183 =
2014-07-27 23:06 METAR KPTW 280306Z AUTO 05006KT 2 1/2SM -TSRA BR BKN027 BKN070 OVC110 19/18
                 A2969 RMK AO2 LTG DSNT ALQDS P0007 T01890183 =
2014-07-27 22:57 METAR KPTW 280257Z AUTO 24006KT 3SM TSRA BR FEW010 BKN029 OVC070 19/18 A2973 RMK
                 AO2 LTG DSNT ALQDS P0001 T01890183 =
2014-07-27 22:54 METAR KPTW 280254Z AUTO 22006KT 1 3/4SM +TSRA BR FEW010 OVC026 19/18 A2973 RMK
                 AO2 PK WND 24027/0233 WSHFT 0207 LTG DSNT ALQDS SLP062 P0125 60129 T01890183
                 53010 =
2014-07-27 22:49 METAR KPTW 280249Z AUTO 00000KT 1SM +TSRA BR FEW009 OVC017 19/19 A2971 RMK AO2
                 PK WND 24027/0233 WSHFT 0207 LTG DSNT ALQDS P0122 =
2014-07-27 22:45 METAR KPTW 280245Z AUTO 07003G19KT 3/4SM +TSRA BR BKN010 OVC019 19/19 A2971 RMK
                 AO2 PK WND 24027/0233 WSHFT 0207 LTG DSNT ALQDS P0113 T01940189 =
2014-07-27 22:37 METAR KPTW 280237Z AUTO 24013G27KT 3/4SM +TSRA BR SCT010 BKN015 OVC021 20/19
                 A2974 RMK AO2 PK WND 24027/0233 WSHFT 0207 LTG DSNT ALQDS PRESRR P0068 T02000189
                 =

Support USWX by starting your Amazon purchase here.